sensor_id;sensor_type;location;lat;lon;timestamp;pressure;altitude;pressure_sealevel;temperature;humidity
17025;BME280;8629;42.496;25.620;2024-03-02T00:00:49;96069.50;;;5.33;81.32
17025;BME280;8629;42.496;25.620;2024-03-02T00:03:16;96081.91;;;5.48;80.59
17025;BME280;8629;42.496;25.620;2024-03-02T00:05:43;96067.66;;;5.54;79.17
17025;BME280;8629;42.496;25.620;2024-03-02T00:08:13;96068.19;;;5.41;80.03
17025;BME280;8629;42.496;25.620;2024-03-02T00:10:45;96043.38;;;5.22;81.11
17025;BME280;8629;42.496;25.620;2024-03-02T00:13:12;96018.88;;;4.96;82.17
17025;BME280;8629;42.496;25.620;2024-03-02T00:15:41;96040.47;;;5.03;82.48
17025;BME280;8629;42.496;25.620;2024-03-02T00:18:11;96069.25;;;5.25;83.15
17025;BME280;8629;42.496;25.620;2024-03-02T00:20:38;96071.34;;;5.33;83.73
17025;BME280;8629;42.496;25.620;2024-03-02T00:29:04;96075.06;;;5.42;85.11
17025;BME280;8629;42.496;25.620;2024-03-02T00:31:32;96013.84;;;5.09;85.02
17025;BME280;8629;42.496;25.620;2024-03-02T00:33:59;96038.34;;;5.30;85.66
17025;BME280;8629;42.496;25.620;2024-03-02T00:36:30;96044.47;;;5.31;85.72
17025;BME280;8629;42.496;25.620;2024-03-02T00:38:57;96061.84;;;5.32;86.53
17025;BME280;8629;42.496;25.620;2024-03-02T00:41:26;96018.09;;;5.00;85.54
17025;BME280;8629;42.496;25.620;2024-03-02T00:44:04;96061.06;;;5.21;85.02
17025;BME280;8629;42.496;25.620;2024-03-02T00:46:34;96053.94;;;5.22;85.04
17025;BME280;8629;42.496;25.620;2024-03-02T00:49:03;96053.97;;;5.27;84.63
17025;BME280;8629;42.496;25.620;2024-03-02T00:51:31;96048.66;;;5.06;85.45
17025;BME280;8629;42.496;25.620;2024-03-02T00:53:59;96017.81;;;5.02;85.33
17025;BME280;8629;42.496;25.620;2024-03-02T00:56:29;96047.88;;;5.31;84.77
17025;BME280;8629;42.496;25.620;2024-03-02T00:58:56;96043.91;;;5.29;84.49
17025;BME280;8629;42.496;25.620;2024-03-02T01:01:24;96025.97;;;5.31;83.80
17025;BME280;8629;42.496;25.620;2024-03-02T01:03:51;96041.53;;;5.32;83.54
17025;BME280;8629;42.496;25.620;2024-03-02T01:06:18;96038.63;;;5.39;84.21
17025;BME280;8629;42.496;25.620;2024-03-02T01:08:45;95989.31;;;5.19;83.97
17025;BME280;8629;42.496;25.620;2024-03-02T01:11:16;95985.88;;;5.29;83.78
17025;BME280;8629;42.496;25.620;2024-03-02T01:13:43;96040.72;;;5.52;84.30
17025;BME280;8629;42.496;25.620;2024-03-02T01:16:10;96013.56;;;5.47;84.23
17025;BME280;8629;42.496;25.620;2024-03-02T01:18:38;96027.00;;;5.50;83.98
17025;BME280;8629;42.496;25.620;2024-03-02T01:21:05;96041.75;;;5.67;84.13
17025;BME280;8629;42.496;25.620;2024-03-02T01:23:32;96047.78;;;5.72;83.97
17025;BME280;8629;42.496;25.620;2024-03-02T01:25:58;96019.63;;;5.37;84.10
17025;BME280;8629;42.496;25.620;2024-03-02T01:28:25;96032.25;;;5.60;84.02
17025;BME280;8629;42.496;25.620;2024-03-02T01:30:53;96040.72;;;5.62;84.02
17025;BME280;8629;42.496;25.620;2024-03-02T01:33:20;96016.16;;;5.57;84.37
17025;BME280;8629;42.496;25.620;2024-03-02T01:35:48;96027.78;;;5.46;84.81
17025;BME280;8629;42.496;25.620;2024-03-02T01:38:15;95936.06;;;4.86;85.38
17025;BME280;8629;42.496;25.620;2024-03-02T01:40:42;96001.16;;;5.42;84.86
17025;BME280;8629;42.496;25.620;2024-03-02T01:43:09;95996.63;;;5.53;84.45
17025;BME280;8629;42.496;25.620;2024-03-02T01:45:36;95977.66;;;5.51;84.49
17025;BME280;8629;42.496;25.620;2024-03-02T01:48:04;96005.91;;;5.50;83.62
17025;BME280;8629;42.496;25.620;2024-03-02T01:50:32;96004.03;;;5.51;84.65
17025;BME280;8629;42.496;25.620;2024-03-02T01:53:01;96008.97;;;5.73;84.57
17025;BME280;8629;42.496;25.620;2024-03-02T01:55:28;96024.84;;;5.68;84.69
17025;BME280;8629;42.496;25.620;2024-03-02T01:57:56;96022.25;;;5.47;85.29
17025;BME280;8629;42.496;25.620;2024-03-02T02:00:23;96013.03;;;5.39;85.51
17025;BME280;8629;42.496;25.620;2024-03-02T02:02:52;96032.56;;;5.44;85.89
17025;BME280;8629;42.496;25.620;2024-03-02T02:05:19;96022.00;;;5.38;86.01
17025;BME280;8629;42.496;25.620;2024-03-02T02:07:46;96011.19;;;5.50;85.74
17025;BME280;8629;42.496;25.620;2024-03-02T02:10:14;96025.44;;;5.39;85.35
17025;BME280;8629;42.496;25.620;2024-03-02T02:12:41;95997.72;;;5.47;85.22
17025;BME280;8629;42.496;25.620;2024-03-02T02:15:27;96019.53;;;5.78;84.26
17025;BME280;8629;42.496;25.620;2024-03-02T02:17:54;95995.84;;;5.52;84.43
17025;BME280;8629;42.496;25.620;2024-03-02T02:20:24;95975.31;;;5.29;84.73
17025;BME280;8629;42.496;25.620;2024-03-02T02:22:57;95969.25;;;5.18;85.19
17025;BME280;8629;42.496;25.620;2024-03-02T02:25:24;96019.09;;;5.50;85.60
17025;BME280;8629;42.496;25.620;2024-03-02T02:27:51;95991.41;;;5.43;85.81
17025;BME280;8629;42.496;25.620;2024-03-02T02:30:19;96011.16;;;5.55;85.37
17025;BME280;8629;42.496;25.620;2024-03-02T02:32:46;95965.06;;;5.12;85.74
17025;BME280;8629;42.496;25.620;2024-03-02T02:35:13;96011.44;;;5.44;86.23
17025;BME280;8629;42.496;25.620;2024-03-02T02:37:41;96017.50;;;5.49;85.70
17025;BME280;8629;42.496;25.620;2024-03-02T02:40:10;95970.06;;;5.24;85.77
17025;BME280;8629;42.496;25.620;2024-03-02T02:42:37;96028.56;;;5.61;85.39
17025;BME280;8629;42.496;25.620;2024-03-02T02:45:05;96039.66;;;5.58;85.30
17025;BME280;8629;42.496;25.620;2024-03-02T02:47:32;96015.41;;;5.36;86.29
17025;BME280;8629;42.496;25.620;2024-03-02T02:50:01;95980.84;;;5.22;85.58
17025;BME280;8629;42.496;25.620;2024-03-02T02:52:31;96023.81;;;5.53;85.89
17025;BME280;8629;42.496;25.620;2024-03-02T02:55:01;96021.69;;;5.60;85.65
17025;BME280;8629;42.496;25.620;2024-03-02T02:57:29;96027.22;;;5.74;85.14
17025;BME280;8629;42.496;25.620;2024-03-02T03:00:00;96028.78;;;5.75;85.00
17025;BME280;8629;42.496;25.620;2024-03-02T03:02:29;95984.81;;;5.30;84.98
17025;BME280;8629;42.496;25.620;2024-03-02T03:04:56;96027.75;;;5.66;85.24
17025;BME280;8629;42.496;25.620;2024-03-02T03:07:23;96029.06;;;5.74;85.54
17025;BME280;8629;42.496;25.620;2024-03-02T03:09:49;96025.06;;;5.76;85.68
17025;BME280;8629;42.496;25.620;2024-03-02T03:12:16;96009.28;;;5.61;85.43
17025;BME280;8629;42.496;25.620;2024-03-02T03:14:45;96009.84;;;5.48;85.84
17025;BME280;8629;42.496;25.620;2024-03-02T03:17:12;96014.06;;;5.54;86.43
17025;BME280;8629;42.496;25.620;2024-03-02T03:19:38;96024.84;;;5.68;85.75
17025;BME280;8629;42.496;25.620;2024-03-02T03:22:05;96017.72;;;5.73;85.65
17025;BME280;8629;42.496;25.620;2024-03-02T03:24:32;95987.97;;;5.37;85.19
17025;BME280;8629;42.496;25.620;2024-03-02T03:26:59;95965.84;;;5.02;86.41
17025;BME280;8629;42.496;25.620;2024-03-02T03:29:26;96030.19;;;5.47;86.91
17025;BME280;8629;42.496;25.620;2024-03-02T03:31:54;96016.16;;;5.57;86.83
17025;BME280;8629;42.496;25.620;2024-03-02T03:34:21;95993.00;;;5.38;86.11
17025;BME280;8629;42.496;25.620;2024-03-02T03:36:50;95985.88;;;5.24;86.85
17025;BME280;8629;42.496;25.620;2024-03-02T03:39:17;96010.13;;;5.46;86.60
17025;BME280;8629;42.496;25.620;2024-03-02T03:41:44;96018.03;;;5.51;86.25
17025;BME280;8629;42.496;25.620;2024-03-02T03:44:10;96005.09;;;5.45;86.21
17025;BME280;8629;42.496;25.620;2024-03-02T03:46:37;95999.06;;;5.39;86.10
17025;BME280;8629;42.496;25.620;2024-03-02T03:49:05;96009.28;;;5.61;85.73
17025;BME280;8629;42.496;25.620;2024-03-02T03:51:33;95948.72;;;5.05;85.39
17025;BME280;8629;42.496;25.620;2024-03-02T03:54:00;96002.72;;;5.38;86.51
17025;BME280;8629;42.496;25.620;2024-03-02T03:56:27;96018.53;;;5.53;85.75
17025;BME280;8629;42.496;25.620;2024-03-02T03:58:54;95998.22;;;5.49;85.90
17025;BME280;8629;42.496;25.620;2024-03-02T04:01:21;96016.91;;;5.68;85.44
17025;BME280;8629;42.496;25.620;2024-03-02T04:03:48;95951.06;;;5.17;85.60
17025;BME280;8629;42.496;25.620;2024-03-02T04:06:16;95973.72;;;5.33;86.11
17025;BME280;8629;42.496;25.620;2024-03-02T04:08:43;95953.13;;;5.30;85.82
17025;BME280;8629;42.496;25.620;2024-03-02T04:11:10;96009.06;;;5.47;86.48
17025;BME280;8629;42.496;25.620;2024-03-02T04:13:37;96008.31;;;5.31;87.05
17025;BME280;8629;42.496;25.620;2024-03-02T04:16:04;95995.91;;;5.32;87.24
17025;BME280;8629;42.496;25.620;2024-03-02T04:18:31;95984.56;;;5.21;87.70
17025;BME280;8629;42.496;25.620;2024-03-02T04:20:58;96015.44;;;5.31;88.06
17025;BME280;8629;42.496;25.620;2024-03-02T04:23:27;96010.69;;;5.12;89.09
17025;BME280;8629;42.496;25.620;2024-03-02T04:25:53;95999.09;;;5.08;88.93
17025;BME280;8629;42.496;25.620;2024-03-02T04:28:20;95984.56;;;5.06;88.92
17025;BME280;8629;42.496;25.620;2024-03-02T04:30:47;96005.13;;;5.29;89.15
17025;BME280;8629;42.496;25.620;2024-03-02T04:33:14;96008.81;;;5.28;88.88
17025;BME280;8629;42.496;25.620;2024-03-02T04:35:41;95977.19;;;4.98;88.76
17025;BME280;8629;42.496;25.620;2024-03-02T04:38:08;96003.53;;;5.44;88.94
17025;BME280;8629;42.496;25.620;2024-03-02T04:40:36;96023.28;;;5.67;87.21
17025;BME280;8629;42.496;25.620;2024-03-02T04:43:03;95995.38;;;5.35;86.28
17025;BME280;8629;42.496;25.620;2024-03-02T04:45:30;95938.94;;;5.15;87.11
17025;BME280;8629;42.496;25.620;2024-03-02T04:47:56;95949.50;;;5.15;86.16
17025;BME280;8629;42.496;25.620;2024-03-02T04:50:23;96017.00;;;5.42;86.67
17025;BME280;8629;42.496;25.620;2024-03-02T04:52:50;95983.72;;;5.46;87.84
17025;BME280;8629;42.496;25.620;2024-03-02T04:55:17;96012.47;;;5.53;86.46
17025;BME280;8629;42.496;25.620;2024-03-02T04:58:02;96008.50;;;5.55;87.28
17025;BME280;8629;42.496;25.620;2024-03-02T05:00:28;95937.34;;;5.20;87.15
17025;BME280;8629;42.496;25.620;2024-03-02T05:02:55;95989.78;;;5.42;86.45
17025;BME280;8629;42.496;25.620;2024-03-02T05:05:22;96004.00;;;5.61;86.95
17025;BME280;8629;42.496;25.620;2024-03-02T05:07:49;95998.50;;;5.37;87.34
17025;BME280;8629;42.496;25.620;2024-03-02T05:10:16;96012.75;;;5.41;87.53
17025;BME280;8629;42.496;25.620;2024-03-02T05:12:42;95967.16;;;5.20;88.30
17025;BME280;8629;42.496;25.620;2024-03-02T05:15:26;95993.00;;;5.23;88.15
17025;BME280;8629;42.496;25.620;2024-03-02T05:17:52;96018.56;;;5.43;87.84
17025;BME280;8629;42.496;25.620;2024-03-02T05:20:19;95951.34;;;5.05;87.74
17025;BME280;8629;42.496;25.620;2024-03-02T05:22:46;96011.72;;;5.42;87.66
17025;BME280;8629;42.496;25.620;2024-03-02T05:25:14;95998.53;;;5.32;87.56
17025;BME280;8629;42.496;25.620;2024-03-02T05:27:41;96017.16;;;5.76;87.50
17025;BME280;8629;42.496;25.620;2024-03-02T05:30:08;95985.56;;;5.40;87.14
17025;BME280;8629;42.496;25.620;2024-03-02T05:32:37;95973.16;;;5.41;87.47
17025;BME280;8629;42.496;25.620;2024-03-02T05:35:05;96022.44;;;5.76;86.74
17025;BME280;8629;42.496;25.620;2024-03-02T05:37:33;96019.28;;;5.69;86.11
17025;BME280;8629;42.496;25.620;2024-03-02T05:40:00;96020.06;;;5.80;86.44
17025;BME280;8629;42.496;25.620;2024-03-02T05:42:26;95962.38;;;5.32;85.87
17025;BME280;8629;42.496;25.620;2024-03-02T05:44:53;96018.75;;;5.77;86.41
17025;BME280;8629;42.496;25.620;2024-03-02T05:47:20;96000.03;;;5.63;86.66
17025;BME280;8629;42.496;25.620;2024-03-02T05:49:49;95966.03;;;5.47;86.94
17025;BME280;8629;42.496;25.620;2024-03-02T05:52:15;95997.88;;;5.76;86.28
17025;BME280;8629;42.496;25.620;2024-03-02T05:54:42;95995.03;;;5.62;87.02
17025;BME280;8629;42.496;25.620;2024-03-02T05:57:09;96023.75;;;5.89;86.78
17025;BME280;8629;42.496;25.620;2024-03-02T05:59:59;96017.41;;;5.85;86.92
17025;BME280;8629;42.496;25.620;2024-03-02T06:02:27;96025.09;;;5.81;86.92
17025;BME280;8629;42.496;25.620;2024-03-02T06:04:58;96037.44;;;5.91;87.34
17025;BME280;8629;42.496;25.620;2024-03-02T06:07:25;95977.34;;;5.62;86.93
17025;BME280;8629;42.496;25.620;2024-03-02T06:09:51;96009.50;;;5.75;86.87
17025;BME280;8629;42.496;25.620;2024-03-02T06:12:18;96008.94;;;5.88;87.23
17025;BME280;8629;42.496;25.620;2024-03-02T06:14:45;96002.09;;;5.82;87.21
17025;BME280;8629;42.496;25.620;2024-03-02T06:17:12;95927.25;;;5.37;87.60
17025;BME280;8629;42.496;25.620;2024-03-02T06:19:41;95960.97;;;5.60;87.30
17025;BME280;8629;42.496;25.620;2024-03-02T06:22:09;96019.00;;;5.86;88.01
17025;BME280;8629;42.496;25.620;2024-03-02T06:24:36;95941.00;;;5.39;87.97
17025;BME280;8629;42.496;25.620;2024-03-02T06:27:03;96027.41;;;5.88;88.42
17025;BME280;8629;42.496;25.620;2024-03-02T06:29:32;96030.81;;;6.04;87.84
17025;BME280;8629;42.496;25.620;2024-03-02T06:31:59;96018.47;;;5.94;87.44
17025;BME280;8629;42.496;25.620;2024-03-02T06:34:26;96015.56;;;5.80;87.75
17025;BME280;8629;42.496;25.620;2024-03-02T06:36:53;96039.88;;;5.93;88.76
17025;BME280;8629;42.496;25.620;2024-03-02T06:39:21;95987.69;;;5.54;87.93
17025;BME280;8629;42.496;25.620;2024-03-02T06:41:48;95936.28;;;5.21;88.77
17025;BME280;8629;42.496;25.620;2024-03-02T06:44:15;96038.78;;;5.99;89.21
17025;BME280;8629;42.496;25.620;2024-03-02T06:46:41;96014.47;;;5.92;88.20
17025;BME280;8629;42.496;25.620;2024-03-02T06:49:08;96036.09;;;6.09;88.26
17025;BME280;8629;42.496;25.620;2024-03-02T06:51:36;96031.06;;;6.12;87.89
17025;BME280;8629;42.496;25.620;2024-03-02T06:54:03;96006.03;;;5.95;87.61
17025;BME280;8629;42.496;25.620;2024-03-02T06:56:31;95959.03;;;5.86;87.44
17025;BME280;8629;42.496;25.620;2024-03-02T06:58:58;95973.72;;;6.13;87.35
17025;BME280;8629;42.496;25.620;2024-03-02T07:01:25;95930.25;;;5.85;87.94
17025;BME280;8629;42.496;25.620;2024-03-02T07:03:53;95991.41;;;6.18;87.46
17025;BME280;8629;42.496;25.620;2024-03-02T07:06:20;95996.91;;;6.26;87.26
17025;BME280;8629;42.496;25.620;2024-03-02T07:08:46;95966.66;;;5.98;87.53
17025;BME280;8629;42.496;25.620;2024-03-02T07:11:13;96027.06;;;6.20;88.06
17025;BME280;8629;42.496;25.620;2024-03-02T07:13:41;96025.22;;;6.16;87.86
17025;BME280;8629;42.496;25.620;2024-03-02T07:16:08;95947.72;;;5.76;87.38
17025;BME280;8629;42.496;25.620;2024-03-02T07:18:55;96027.53;;;6.32;86.92
17025;BME280;8629;42.496;25.620;2024-03-02T07:21:24;96034.06;;;6.45;86.62
17025;BME280;8629;42.496;25.620;2024-03-02T07:23:51;96001.66;;;6.29;86.59
17025;BME280;8629;42.496;25.620;2024-03-02T07:26:18;95971.88;;;6.13;86.79
17025;BME280;8629;42.496;25.620;2024-03-02T07:28:47;96038.81;;;6.48;86.88
17025;BME280;8629;42.496;25.620;2024-03-02T07:31:14;96010.28;;;6.45;87.03
17025;BME280;8629;42.496;25.620;2024-03-02T07:33:44;95964.94;;;6.28;86.65
17025;BME280;8629;42.496;25.620;2024-03-02T07:36:10;96000.72;;;6.54;86.10
17025;BME280;8629;42.496;25.620;2024-03-02T07:38:37;95967.88;;;6.21;86.76
17025;BME280;8629;42.496;25.620;2024-03-02T07:41:05;96007.03;;;6.58;86.33
17025;BME280;8629;42.496;25.620;2024-03-02T07:43:33;95998.13;;;6.44;86.07
17025;BME280;8629;42.496;25.620;2024-03-02T07:46:01;95995.28;;;6.35;85.73
17025;BME280;8629;42.496;25.620;2024-03-02T07:48:29;96017.03;;;6.67;85.80
17025;BME280;8629;42.496;25.620;2024-03-02T07:50:56;96030.75;;;6.69;85.59
17025;BME280;8629;42.496;25.620;2024-03-02T07:53:23;96052.59;;;6.90;84.44
17025;BME280;8629;42.496;25.620;2024-03-02T07:55:49;96014.88;;;6.69;84.51
17025;BME280;8629;42.496;25.620;2024-03-02T07:58:17;96024.19;;;6.66;83.73
17025;BME280;8629;42.496;25.620;2024-03-02T08:00:45;96065.00;;;6.94;83.75
17025;BME280;8629;42.496;25.620;2024-03-02T08:03:13;96044.97;;;6.83;84.01
17025;BME280;8629;42.496;25.620;2024-03-02T08:05:40;95993.97;;;6.72;84.38
17025;BME280;8629;42.496;25.620;2024-03-02T08:08:07;95989.16;;;6.79;83.98
17025;BME280;8629;42.496;25.620;2024-03-02T08:10:34;96064.78;;;7.20;82.96
17025;BME280;8629;42.496;25.620;2024-03-02T08:13:03;96036.78;;;7.14;82.51
17025;BME280;8629;42.496;25.620;2024-03-02T08:15:30;96058.41;;;7.26;82.37
17025;BME280;8629;42.496;25.620;2024-03-02T08:17:57;96061.53;;;7.33;82.57
17025;BME280;8629;42.496;25.620;2024-03-02T08:20:26;96034.09;;;7.19;82.61
17025;BME280;8629;42.496;25.620;2024-03-02T08:22:52;95946.41;;;6.33;83.82
17025;BME280;8629;42.496;25.620;2024-03-02T08:25:20;96030.59;;;6.94;84.44
17025;BME280;8629;42.496;25.620;2024-03-02T08:27:48;96046.13;;;7.06;83.66
17025;BME280;8629;42.496;25.620;2024-03-02T08:30:15;96045.41;;;6.95;84.06
17025;BME280;8629;42.496;25.620;2024-03-02T08:32:41;96024.94;;;7.06;83.65
17025;BME280;8629;42.496;25.620;2024-03-02T08:35:08;96026.41;;;7.22;82.97
17025;BME280;8629;42.496;25.620;2024-03-02T08:37:37;95985.63;;;6.94;82.66
17025;BME280;8629;42.496;25.620;2024-03-02T08:40:07;96037.41;;;7.34;82.38
17025;BME280;8629;42.496;25.620;2024-03-02T08:42:35;96018.78;;;7.45;81.96
17025;BME280;8629;42.496;25.620;2024-03-02T08:45:01;95968.38;;;7.02;81.34
17025;BME280;8629;42.496;25.620;2024-03-02T08:47:28;96039.03;;;7.59;81.75
17025;BME280;8629;42.496;25.620;2024-03-02T08:49:55;96028.38;;;7.65;80.67
17025;BME280;8629;42.496;25.620;2024-03-02T08:52:22;96000.56;;;7.38;80.99
17025;BME280;8629;42.496;25.620;2024-03-02T08:54:50;96034.94;;;7.72;80.60
17025;BME280;8629;42.496;25.620;2024-03-02T08:57:17;96036.72;;;7.77;80.76
17025;BME280;8629;42.496;25.620;2024-03-02T08:59:44;96027.94;;;7.81;80.41
17025;BME280;8629;42.496;25.620;2024-03-02T09:02:11;96028.56;;;7.73;80.75
17025;BME280;8629;42.496;25.620;2024-03-02T09:04:38;95980.31;;;7.52;80.29
17025;BME280;8629;42.496;25.620;2024-03-02T09:07:07;95983.06;;;7.42;80.58
17025;BME280;8629;42.496;25.620;2024-03-02T09:09:34;95979.13;;;7.40;80.75
17025;BME280;8629;42.496;25.620;2024-03-02T09:12:02;96021.75;;;7.67;80.36
17025;BME280;8629;42.496;25.620;2024-03-02T09:14:29;96034.78;;;7.58;80.85
17025;BME280;8629;42.496;25.620;2024-03-02T09:16:56;96041.91;;;7.63;81.14
17025;BME280;8629;42.496;25.620;2024-03-02T09:19:23;96030.06;;;7.55;80.65
17025;BME280;8629;42.496;25.620;2024-03-02T09:21:49;95969.41;;;7.59;80.09
17025;BME280;8629;42.496;25.620;2024-03-02T09:24:16;96010.81;;;7.98;79.89
17025;BME280;8629;42.496;25.620;2024-03-02T09:26:43;95998.91;;;7.95;79.77
17025;BME280;8629;42.496;25.620;2024-03-02T09:29:11;96014.91;;;8.09;79.26
17025;BME280;8629;42.496;25.620;2024-03-02T09:31:42;96020.22;;;8.28;79.16
17025;BME280;8629;42.496;25.620;2024-03-02T09:34:09;96025.97;;;8.35;78.67
17025;BME280;8629;42.496;25.620;2024-03-02T09:36:36;96016.91;;;8.41;78.56
17025;BME280;8629;42.496;25.620;2024-03-02T09:39:03;95995.94;;;8.21;78.38
17025;BME280;8629;42.496;25.620;2024-03-02T09:41:30;95992.38;;;8.30;79.06
17025;BME280;8629;42.496;25.620;2024-03-02T09:43:57;96015.13;;;8.55;78.42
17025;BME280;8629;42.496;25.620;2024-03-02T09:46:25;96001.84;;;8.37;77.48
17025;BME280;8629;42.496;25.620;2024-03-02T09:48:52;95988.97;;;8.49;76.81
17025;BME280;8629;42.496;25.620;2024-03-02T09:51:19;96021.44;;;8.78;76.62
17025;BME280;8629;42.496;25.620;2024-03-02T09:53:47;96022.19;;;8.98;75.71
17025;BME280;8629;42.496;25.620;2024-03-02T09:56:14;96022.03;;;9.08;75.74
17025;BME280;8629;42.496;25.620;2024-03-02T09:58:41;96018.72;;;9.16;75.48
17025;BME280;8629;42.496;25.620;2024-03-02T10:01:09;96007.56;;;9.00;75.84
17025;BME280;8629;42.496;25.620;2024-03-02T10:03:38;96015.63;;;8.95;76.70
17025;BME280;8629;42.496;25.620;2024-03-02T10:06:21;96015.19;;;8.88;75.70
17025;BME280;8629;42.496;25.620;2024-03-02T10:08:49;96020.06;;;9.00;76.13
17025;BME280;8629;42.496;25.620;2024-03-02T10:11:27;96018.84;;;8.92;76.40
17025;BME280;8629;42.496;25.620;2024-03-02T10:14:05;95990.41;;;8.79;76.10
17025;BME280;8629;42.496;25.620;2024-03-02T10:16:37;96020.53;;;9.02;75.61
17025;BME280;8629;42.496;25.620;2024-03-02T10:19:20;96026.44;;;8.99;75.87
17025;BME280;8629;42.496;25.620;2024-03-02T10:21:47;96031.38;;;8.87;76.28
17025;BME280;8629;42.496;25.620;2024-03-02T10:24:14;96030.69;;;8.81;77.16
17025;BME280;8629;42.496;25.620;2024-03-02T10:26:41;96024.69;;;8.75;76.57
17025;BME280;8629;42.496;25.620;2024-03-02T10:29:08;96019.94;;;8.72;76.56
17025;BME280;8629;42.496;25.620;2024-03-02T10:31:37;95987.59;;;8.51;76.99
17025;BME280;8629;42.496;25.620;2024-03-02T10:34:04;95987.75;;;8.60;76.43
17025;BME280;8629;42.496;25.620;2024-03-02T10:36:32;95990.03;;;8.67;77.14
17025;BME280;8629;42.496;25.620;2024-03-02T10:39:01;96005.88;;;8.91;75.91
17025;BME280;8629;42.496;25.620;2024-03-02T10:41:32;95979.13;;;8.87;75.68
17025;BME280;8629;42.496;25.620;2024-03-02T10:43:59;96002.88;;;9.11;75.02
17025;BME280;8629;42.496;25.620;2024-03-02T10:46:29;96012.47;;;9.26;74.99
17025;BME280;8629;42.496;25.620;2024-03-02T10:48:56;95972.75;;;9.02;74.58
17025;BME280;8629;42.496;25.620;2024-03-02T10:51:24;95996.47;;;8.98;74.77
17025;BME280;8629;42.496;25.620;2024-03-02T10:53:55;95990.81;;;9.19;74.46
17025;BME280;8629;42.496;25.620;2024-03-02T10:56:27;95992.91;;;9.36;73.81
17025;BME280;8629;42.496;25.620;2024-03-02T10:59:00;95988.41;;;9.50;73.49
17025;BME280;8629;42.496;25.620;2024-03-02T11:01:29;95919.50;;;8.98;72.29
17025;BME280;8629;42.496;25.620;2024-03-02T11:03:58;95995.09;;;9.47;71.95
17025;BME280;8629;42.496;25.620;2024-03-02T11:06:28;95986.84;;;9.63;72.42
17025;BME280;8629;42.496;25.620;2024-03-02T11:09:00;95979.28;;;9.84;72.48
17025;BME280;8629;42.496;25.620;2024-03-02T11:11:32;95986.75;;;9.82;71.19
17025;BME280;8629;42.496;25.620;2024-03-02T11:14:04;95983.91;;;9.92;71.06
17025;BME280;8629;42.496;25.620;2024-03-02T11:16:35;95980.38;;;9.96;71.13
17025;BME280;8629;42.496;25.620;2024-03-02T11:19:04;95975.72;;;9.74;71.12
17025;BME280;8629;42.496;25.620;2024-03-02T11:21:33;95960.38;;;9.71;71.12
17025;BME280;8629;42.496;25.620;2024-03-02T11:24:31;95978.97;;;9.71;71.73
17025;BME280;8629;42.496;25.620;2024-03-02T11:27:01;95969.22;;;9.94;71.67
17025;BME280;8629;42.496;25.620;2024-03-02T11:29:52;95962.09;;;10.17;70.09
17025;BME280;8629;42.496;25.620;2024-03-02T11:32:21;95961.63;;;10.29;70.27
17025;BME280;8629;42.496;25.620;2024-03-02T11:34:50;95954.94;;;10.32;69.68
17025;BME280;8629;42.496;25.620;2024-03-02T11:37:17;95930.88;;;10.23;69.09
17025;BME280;8629;42.496;25.620;2024-03-02T11:39:49;95943.25;;;10.41;68.56
17025;BME280;8629;42.496;25.620;2024-03-02T11:42:16;95938.88;;;10.59;68.79
17025;BME280;8629;42.496;25.620;2024-03-02T11:44:45;95938.75;;;10.42;69.71
17025;BME280;8629;42.496;25.620;2024-03-02T11:47:15;95939.41;;;10.47;68.83
17025;BME280;8629;42.496;25.620;2024-03-02T11:49:43;95899.81;;;10.46;68.62
17025;BME280;8629;42.496;25.620;2024-03-02T11:52:11;95928.72;;;10.61;69.08
17025;BME280;8629;42.496;25.620;2024-03-02T11:54:39;95939.63;;;10.37;69.34
17025;BME280;8629;42.496;25.620;2024-03-02T11:57:13;95934.22;;;10.42;69.52
17025;BME280;8629;42.496;25.620;2024-03-02T11:59:40;95918.91;;;10.12;70.00
17025;BME280;8629;42.496;25.620;2024-03-02T12:02:14;95932.16;;;10.39;69.60
17025;BME280;8629;42.496;25.620;2024-03-02T12:04:41;95935.47;;;10.45;69.32
17025;BME280;8629;42.496;25.620;2024-03-02T12:07:09;95936.69;;;10.39;69.28
17025;BME280;8629;42.496;25.620;2024-03-02T12:09:36;95892.88;;;10.22;69.20
17025;BME280;8629;42.496;25.620;2024-03-02T12:12:04;95923.41;;;10.25;69.77
17025;BME280;8629;42.496;25.620;2024-03-02T12:14:33;95936.72;;;10.11;70.42
17025;BME280;8629;42.496;25.620;2024-03-02T12:17:01;95923.88;;;9.77;71.05
17025;BME280;8629;42.496;25.620;2024-03-02T12:19:29;95936.56;;;9.80;71.84
17025;BME280;8629;42.496;25.620;2024-03-02T12:21:56;95939.41;;;9.56;72.62
17025;BME280;8629;42.496;25.620;2024-03-02T12:24:27;95928.28;;;9.68;72.47
17025;BME280;8629;42.496;25.620;2024-03-02T12:26:54;95923.66;;;9.73;71.83
17025;BME280;8629;42.496;25.620;2024-03-02T12:29:22;95923.38;;;9.61;72.21
17025;BME280;8629;42.496;25.620;2024-03-02T12:31:51;95931.53;;;9.78;72.25
17025;BME280;8629;42.496;25.620;2024-03-02T12:34:19;95921.22;;;9.63;72.19
17025;BME280;8629;42.496;25.620;2024-03-02T12:36:46;95932.03;;;9.80;72.34
17025;BME280;8629;42.496;25.620;2024-03-02T12:39:15;95929.66;;;9.93;71.60
17025;BME280;8629;42.496;25.620;2024-03-02T12:41:42;95936.25;;;9.95;71.21
17025;BME280;8629;42.496;25.620;2024-03-02T12:44:09;95918.72;;;9.94;71.63
17025;BME280;8629;42.496;25.620;2024-03-02T12:46:36;95932.22;;;9.84;71.54
17025;BME280;8629;42.496;25.620;2024-03-02T12:49:09;95929.78;;;9.88;71.79
17025;BME280;8629;42.496;25.620;2024-03-02T12:51:38;95919.91;;;9.88;71.63
17025;BME280;8629;42.496;25.620;2024-03-02T12:54:06;95941.19;;;9.88;71.93
17025;BME280;8629;42.496;25.620;2024-03-02T12:56:33;95928.09;;;9.78;72.11
17025;BME280;8629;42.496;25.620;2024-03-02T12:59:00;95896.72;;;9.66;71.99
17025;BME280;8629;42.496;25.620;2024-03-02T13:01:27;95945.59;;;9.93;71.46
17025;BME280;8629;42.496;25.620;2024-03-02T13:03:54;95936.75;;;9.97;71.65
17025;BME280;8629;42.496;25.620;2024-03-02T13:06:28;95948.44;;;10.10;71.44
17025;BME280;8629;42.496;25.620;2024-03-02T13:08:55;95951.47;;;10.17;71.51
17025;BME280;8629;42.496;25.620;2024-03-02T13:11:22;95952.97;;;10.10;71.47
17025;BME280;8629;42.496;25.620;2024-03-02T13:13:50;95912.66;;;9.80;70.90
17025;BME280;8629;42.496;25.620;2024-03-02T13:16:18;95949.25;;;9.83;71.14
17025;BME280;8629;42.496;25.620;2024-03-02T13:18:45;95949.63;;;9.90;71.57
17025;BME280;8629;42.496;25.620;2024-03-02T13:21:12;95949.75;;;9.99;71.66